sensor_id;sensor_type;location;lat;lon;timestamp;P1;durP1;ratioP1;P2;durP2;ratioP2
46363;SDS011;32071;49.036;9.344;2023-08-20T00:00:08;18.17;;;16.33;;
46363;SDS011;32071;49.036;9.344;2023-08-20T00:02:34;17.37;;;15.47;;
46363;SDS011;32071;49.036;9.344;2023-08-20T00:05:02;18.17;;;16.27;;
46363;SDS011;32071;49.036;9.344;2023-08-20T00:07:29;18.67;;;16.77;;
46363;SDS011;32071;49.036;9.344;2023-08-20T00:09:56;19.43;;;15.97;;
46363;SDS011;32071;49.036;9.344;2023-08-20T00:12:21;17.63;;;15.87;;
46363;SDS011;32071;49.036;9.344;2023-08-20T00:17:33;21.43;;;19.53;;
46363;SDS011;32071;49.036;9.344;2023-08-20T00:20:01;25.37;;;22.83;;
46363;SDS011;32071;49.036;9.344;2023-08-20T00:22:33;22.47;;;19.37;;
46363;SDS011;32071;49.036;9.344;2023-08-20T00:24:59;17.80;;;15.90;;
46363;SDS011;32071;49.036;9.344;2023-08-20T00:27:25;18.03;;;16.07;;
46363;SDS011;32071;49.036;9.344;2023-08-20T00:29:50;20.30;;;18.20;;
46363;SDS011;32071;49.036;9.344;2023-08-20T00:32:16;21.03;;;19.03;;
46363;SDS011;32071;49.036;9.344;2023-08-20T00:34:41;18.17;;;16.50;;
46363;SDS011;32071;49.036;9.344;2023-08-20T00:37:07;18.80;;;16.83;;
46363;SDS011;32071;49.036;9.344;2023-08-20T00:39:33;18.43;;;16.63;;
46363;SDS011;32071;49.036;9.344;2023-08-20T00:41:58;20.97;;;18.20;;
46363;SDS011;32071;49.036;9.344;2023-08-20T00:44:24;19.57;;;17.60;;
46363;SDS011;32071;49.036;9.344;2023-08-20T00:46:50;20.90;;;16.97;;
46363;SDS011;32071;49.036;9.344;2023-08-20T00:49:16;19.50;;;17.40;;
46363;SDS011;32071;49.036;9.344;2023-08-20T00:51:42;19.50;;;17.20;;
46363;SDS011;32071;49.036;9.344;2023-08-20T00:54:08;20.17;;;16.87;;
46363;SDS011;32071;49.036;9.344;2023-08-20T00:56:35;20.30;;;18.17;;
46363;SDS011;32071;49.036;9.344;2023-08-20T00:59:01;18.80;;;16.90;;
46363;SDS011;32071;49.036;9.344;2023-08-20T01:01:29;18.83;;;16.93;;
46363;SDS011;32071;49.036;9.344;2023-08-20T01:03:54;19.40;;;17.37;;
46363;SDS011;32071;49.036;9.344;2023-08-20T01:06:20;20.20;;;17.13;;
46363;SDS011;32071;49.036;9.344;2023-08-20T01:09:00;19.10;;;17.30;;
46363;SDS011;32071;49.036;9.344;2023-08-20T01:11:33;20.13;;;18.13;;
46363;SDS011;32071;49.036;9.344;2023-08-20T01:14:15;20.33;;;17.97;;
46363;SDS011;32071;49.036;9.344;2023-08-20T01:16:41;18.67;;;16.67;;
46363;SDS011;32071;49.036;9.344;2023-08-20T01:19:10;19.03;;;17.20;;
46363;SDS011;32071;49.036;9.344;2023-08-20T01:21:58;19.33;;;17.23;;
46363;SDS011;32071;49.036;9.344;2023-08-20T01:29:49;19.23;;;16.37;;
46363;SDS011;32071;49.036;9.344;2023-08-20T01:32:16;19.20;;;17.40;;
46363;SDS011;32071;49.036;9.344;2023-08-20T01:34:43;19.37;;;17.43;;
46363;SDS011;32071;49.036;9.344;2023-08-20T01:37:10;19.47;;;17.57;;
46363;SDS011;32071;49.036;9.344;2023-08-20T01:39:36;20.23;;;17.60;;
46363;SDS011;32071;49.036;9.344;2023-08-20T01:42:01;24.57;;;16.97;;
46363;SDS011;32071;49.036;9.344;2023-08-20T01:44:27;18.80;;;16.90;;
46363;SDS011;32071;49.036;9.344;2023-08-20T01:46:52;20.73;;;18.17;;
46363;SDS011;32071;49.036;9.344;2023-08-20T01:49:18;29.10;;;18.50;;
46363;SDS011;32071;49.036;9.344;2023-08-20T01:51:43;20.47;;;18.27;;
46363;SDS011;32071;49.036;9.344;2023-08-20T01:54:09;20.30;;;18.07;;
46363;SDS011;32071;49.036;9.344;2023-08-20T01:56:35;19.20;;;17.27;;
46363;SDS011;32071;49.036;9.344;2023-08-20T01:59:00;19.97;;;17.97;;
46363;SDS011;32071;49.036;9.344;2023-08-20T02:01:27;19.13;;;17.27;;
46363;SDS011;32071;49.036;9.344;2023-08-20T02:03:52;19.70;;;16.40;;
46363;SDS011;32071;49.036;9.344;2023-08-20T02:06:18;19.13;;;16.70;;
46363;SDS011;32071;49.036;9.344;2023-08-20T02:08:44;18.70;;;16.80;;
46363;SDS011;32071;49.036;9.344;2023-08-20T02:11:09;19.03;;;16.87;;
46363;SDS011;32071;49.036;9.344;2023-08-20T02:13:35;20.83;;;17.07;;
46363;SDS011;32071;49.036;9.344;2023-08-20T02:16:01;17.80;;;16.00;;
46363;SDS011;32071;49.036;9.344;2023-08-20T02:18:28;19.27;;;17.27;;
46363;SDS011;32071;49.036;9.344;2023-08-20T02:20:54;18.40;;;16.10;;
46363;SDS011;32071;49.036;9.344;2023-08-20T02:23:20;19.83;;;17.73;;
46363;SDS011;32071;49.036;9.344;2023-08-20T02:25:46;19.30;;;17.23;;
46363;SDS011;32071;49.036;9.344;2023-08-20T02:28:12;19.40;;;17.40;;
46363;SDS011;32071;49.036;9.344;2023-08-20T02:30:41;19.07;;;17.07;;
46363;SDS011;32071;49.036;9.344;2023-08-20T02:33:07;19.87;;;17.43;;
46363;SDS011;32071;49.036;9.344;2023-08-20T02:35:33;20.63;;;18.40;;
46363;SDS011;32071;49.036;9.344;2023-08-20T02:37:58;20.30;;;18.20;;
46363;SDS011;32071;49.036;9.344;2023-08-20T02:40:24;20.27;;;17.70;;
46363;SDS011;32071;49.036;9.344;2023-08-20T02:42:49;21.17;;;17.40;;
46363;SDS011;32071;49.036;9.344;2023-08-20T02:45:15;18.87;;;16.90;;
46363;SDS011;32071;49.036;9.344;2023-08-20T02:47:40;18.63;;;16.63;;
46363;SDS011;32071;49.036;9.344;2023-08-20T02:50:06;19.33;;;17.30;;
46363;SDS011;32071;49.036;9.344;2023-08-20T02:52:32;20.57;;;17.27;;
46363;SDS011;32071;49.036;9.344;2023-08-20T02:54:57;19.93;;;18.03;;
46363;SDS011;32071;49.036;9.344;2023-08-20T02:57:23;25.60;;;18.07;;
46363;SDS011;32071;49.036;9.344;2023-08-20T02:59:48;21.13;;;17.83;;
46363;SDS011;32071;49.036;9.344;2023-08-20T03:02:15;19.97;;;17.87;;
46363;SDS011;32071;49.036;9.344;2023-08-20T03:04:40;19.20;;;16.90;;
46363;SDS011;32071;49.036;9.344;2023-08-20T03:07:06;19.07;;;17.10;;
46363;SDS011;32071;49.036;9.344;2023-08-20T03:09:32;20.37;;;18.17;;
46363;SDS011;32071;49.036;9.344;2023-08-20T03:11:57;22.00;;;17.20;;
46363;SDS011;32071;49.036;9.344;2023-08-20T03:14:23;19.33;;;17.20;;
46363;SDS011;32071;49.036;9.344;2023-08-20T03:16:48;19.60;;;17.67;;
46363;SDS011;32071;49.036;9.344;2023-08-20T03:19:14;21.60;;;17.50;;
46363;SDS011;32071;49.036;9.344;2023-08-20T03:21:41;18.90;;;16.97;;
46363;SDS011;32071;49.036;9.344;2023-08-20T03:24:06;20.23;;;18.03;;
46363;SDS011;32071;49.036;9.344;2023-08-20T03:26:33;23.90;;;19.13;;
46363;SDS011;32071;49.036;9.344;2023-08-20T03:28:58;20.60;;;18.47;;
46363;SDS011;32071;49.036;9.344;2023-08-20T03:31:24;20.73;;;18.30;;
46363;SDS011;32071;49.036;9.344;2023-08-20T03:33:50;24.90;;;18.83;;
46363;SDS011;32071;49.036;9.344;2023-08-20T03:36:15;20.20;;;17.50;;
46363;SDS011;32071;49.036;9.344;2023-08-20T03:38:41;21.60;;;17.73;;
46363;SDS011;32071;49.036;9.344;2023-08-20T03:41:07;18.77;;;16.87;;
46363;SDS011;32071;49.036;9.344;2023-08-20T03:43:32;19.00;;;17.00;;
46363;SDS011;32071;49.036;9.344;2023-08-20T03:45:58;19.47;;;16.33;;
46363;SDS011;32071;49.036;9.344;2023-08-20T03:48:23;19.03;;;16.37;;
46363;SDS011;32071;49.036;9.344;2023-08-20T03:50:49;19.40;;;16.80;;
46363;SDS011;32071;49.036;9.344;2023-08-20T03:53:15;18.73;;;16.83;;
46363;SDS011;32071;49.036;9.344;2023-08-20T03:55:40;20.83;;;17.57;;
46363;SDS011;32071;49.036;9.344;2023-08-20T03:58:06;19.47;;;17.30;;
46363;SDS011;32071;49.036;9.344;2023-08-20T04:00:34;19.53;;;17.43;;
46363;SDS011;32071;49.036;9.344;2023-08-20T04:03:00;22.93;;;17.03;;
46363;SDS011;32071;49.036;9.344;2023-08-20T04:05:25;19.73;;;17.47;;
46363;SDS011;32071;49.036;9.344;2023-08-20T04:07:51;19.73;;;17.67;;
46363;SDS011;32071;49.036;9.344;2023-08-20T04:10:17;19.80;;;17.70;;
46363;SDS011;32071;49.036;9.344;2023-08-20T04:12:42;19.90;;;17.80;;
46363;SDS011;32071;49.036;9.344;2023-08-20T04:15:08;19.10;;;17.20;;
46363;SDS011;32071;49.036;9.344;2023-08-20T04:17:34;19.17;;;17.27;;
46363;SDS011;32071;49.036;9.344;2023-08-20T04:19:59;19.10;;;17.20;;
46363;SDS011;32071;49.036;9.344;2023-08-20T04:22:25;20.30;;;17.53;;
46363;SDS011;32071;49.036;9.344;2023-08-20T04:24:50;20.63;;;18.70;;
46363;SDS011;32071;49.036;9.344;2023-08-20T04:27:16;19.03;;;17.03;;
46363;SDS011;32071;49.036;9.344;2023-08-20T04:29:42;19.33;;;16.43;;
46363;SDS011;32071;49.036;9.344;2023-08-20T04:32:07;19.70;;;17.70;;
46363;SDS011;32071;49.036;9.344;2023-08-20T04:34:33;22.23;;;17.90;;
46363;SDS011;32071;49.036;9.344;2023-08-20T04:36:58;18.00;;;16.40;;
46363;SDS011;32071;49.036;9.344;2023-08-20T04:39:24;23.27;;;18.77;;
46363;SDS011;32071;49.036;9.344;2023-08-20T04:41:50;19.83;;;17.73;;
46363;SDS011;32071;49.036;9.344;2023-08-20T04:44:15;21.27;;;17.37;;
46363;SDS011;32071;49.036;9.344;2023-08-20T04:46:41;23.60;;;19.33;;
46363;SDS011;32071;49.036;9.344;2023-08-20T04:49:07;20.60;;;18.00;;
46363;SDS011;32071;49.036;9.344;2023-08-20T04:51:33;20.47;;;18.37;;
46363;SDS011;32071;49.036;9.344;2023-08-20T04:53:58;21.90;;;18.83;;
46363;SDS011;32071;49.036;9.344;2023-08-20T04:56:24;19.93;;;17.93;;
46363;SDS011;32071;49.036;9.344;2023-08-20T04:58:49;21.47;;;19.10;;
46363;SDS011;32071;49.036;9.344;2023-08-20T05:01:15;22.40;;;20.00;;
46363;SDS011;32071;49.036;9.344;2023-08-20T05:03:41;20.77;;;18.60;;
46363;SDS011;32071;49.036;9.344;2023-08-20T05:06:06;20.20;;;18.30;;
46363;SDS011;32071;49.036;9.344;2023-08-20T05:08:32;20.33;;;18.27;;
46363;SDS011;32071;49.036;9.344;2023-08-20T05:10:57;20.67;;;18.67;;
46363;SDS011;32071;49.036;9.344;2023-08-20T05:13:23;19.60;;;17.57;;
46363;SDS011;32071;49.036;9.344;2023-08-20T05:15:49;21.10;;;19.00;;
46363;SDS011;32071;49.036;9.344;2023-08-20T05:18:14;20.70;;;18.73;;
46363;SDS011;32071;49.036;9.344;2023-08-20T05:20:40;19.53;;;17.70;;
46363;SDS011;32071;49.036;9.344;2023-08-20T05:23:06;19.60;;;17.70;;
46363;SDS011;32071;49.036;9.344;2023-08-20T05:25:32;20.57;;;18.50;;
46363;SDS011;32071;49.036;9.344;2023-08-20T05:27:57;21.43;;;17.60;;
46363;SDS011;32071;49.036;9.344;2023-08-20T05:30:23;21.03;;;18.83;;
46363;SDS011;32071;49.036;9.344;2023-08-20T05:32:48;20.13;;;18.03;;
46363;SDS011;32071;49.036;9.344;2023-08-20T05:35:14;19.40;;;17.50;;
46363;SDS011;32071;49.036;9.344;2023-08-20T05:37:39;19.70;;;17.47;;
46363;SDS011;32071;49.036;9.344;2023-08-20T05:40:05;19.00;;;17.30;;
46363;SDS011;32071;49.036;9.344;2023-08-20T05:42:33;20.60;;;18.43;;
46363;SDS011;32071;49.036;9.344;2023-08-20T05:44:59;20.37;;;18.37;;
46363;SDS011;32071;49.036;9.344;2023-08-20T05:47:25;20.10;;;18.20;;
46363;SDS011;32071;49.036;9.344;2023-08-20T05:49:50;20.77;;;18.40;;
46363;SDS011;32071;49.036;9.344;2023-08-20T05:52:16;21.53;;;19.17;;
46363;SDS011;32071;49.036;9.344;2023-08-20T05:54:41;21.17;;;18.40;;
46363;SDS011;32071;49.036;9.344;2023-08-20T05:57:07;19.90;;;17.90;;
46363;SDS011;32071;49.036;9.344;2023-08-20T05:59:32;22.00;;;19.53;;
46363;SDS011;32071;49.036;9.344;2023-08-20T06:01:58;20.50;;;18.50;;
46363;SDS011;32071;49.036;9.344;2023-08-20T06:04:26;20.17;;;18.37;;
46363;SDS011;32071;49.036;9.344;2023-08-20T06:06:51;21.70;;;19.40;;
46363;SDS011;32071;49.036;9.344;2023-08-20T06:09:17;20.80;;;18.50;;
46363;SDS011;32071;49.036;9.344;2023-08-20T06:11:42;22.00;;;19.90;;
46363;SDS011;32071;49.036;9.344;2023-08-20T06:14:08;21.27;;;19.10;;
46363;SDS011;32071;49.036;9.344;2023-08-20T06:16:33;22.00;;;20.10;;
46363;SDS011;32071;49.036;9.344;2023-08-20T06:18:59;21.83;;;19.80;;
46363;SDS011;32071;49.036;9.344;2023-08-20T06:21:24;23.30;;;21.00;;
46363;SDS011;32071;49.036;9.344;2023-08-20T06:23:50;20.17;;;18.17;;
46363;SDS011;32071;49.036;9.344;2023-08-20T06:26:16;20.67;;;18.37;;
46363;SDS011;32071;49.036;9.344;2023-08-20T06:28:42;21.67;;;19.37;;
46363;SDS011;32071;49.036;9.344;2023-08-20T06:31:08;19.63;;;17.73;;
46363;SDS011;32071;49.036;9.344;2023-08-20T06:33:33;22.43;;;20.20;;
46363;SDS011;32071;49.036;9.344;2023-08-20T06:35:59;22.67;;;20.43;;
46363;SDS011;32071;49.036;9.344;2023-08-20T06:38:24;21.97;;;19.67;;
46363;SDS011;32071;49.036;9.344;2023-08-20T06:40:50;23.00;;;20.03;;
46363;SDS011;32071;49.036;9.344;2023-08-20T06:43:16;23.60;;;21.27;;
46363;SDS011;32071;49.036;9.344;2023-08-20T06:45:41;26.53;;;20.27;;
46363;SDS011;32071;49.036;9.344;2023-08-20T06:48:07;25.27;;;22.67;;
46363;SDS011;32071;49.036;9.344;2023-08-20T06:50:32;22.73;;;20.53;;
46363;SDS011;32071;49.036;9.344;2023-08-20T06:52:58;23.13;;;20.73;;
46363;SDS011;32071;49.036;9.344;2023-08-20T06:55:23;24.63;;;22.20;;
46363;SDS011;32071;49.036;9.344;2023-08-20T06:57:49;24.90;;;22.47;;
46363;SDS011;32071;49.036;9.344;2023-08-20T07:00:14;26.33;;;23.50;;
46363;SDS011;32071;49.036;9.344;2023-08-20T07:02:41;26.17;;;22.80;;
46363;SDS011;32071;49.036;9.344;2023-08-20T07:05:06;26.70;;;22.27;;
46363;SDS011;32071;49.036;9.344;2023-08-20T07:07:34;25.60;;;23.10;;
46363;SDS011;32071;49.036;9.344;2023-08-20T07:10:00;26.13;;;23.30;;
46363;SDS011;32071;49.036;9.344;2023-08-20T07:12:25;26.27;;;23.60;;
46363;SDS011;32071;49.036;9.344;2023-08-20T07:14:51;25.57;;;22.77;;
46363;SDS011;32071;49.036;9.344;2023-08-20T07:17:16;24.80;;;22.40;;
46363;SDS011;32071;49.036;9.344;2023-08-20T07:19:42;24.87;;;22.40;;
46363;SDS011;32071;49.036;9.344;2023-08-20T07:22:08;24.00;;;21.67;;
46363;SDS011;32071;49.036;9.344;2023-08-20T07:24:33;26.77;;;23.33;;
46363;SDS011;32071;49.036;9.344;2023-08-20T07:27:00;23.57;;;21.30;;
46363;SDS011;32071;49.036;9.344;2023-08-20T07:29:28;24.73;;;22.40;;
46363;SDS011;32071;49.036;9.344;2023-08-20T07:31:55;27.33;;;22.87;;
46363;SDS011;32071;49.036;9.344;2023-08-20T07:34:21;25.00;;;21.93;;
46363;SDS011;32071;49.036;9.344;2023-08-20T07:36:46;23.70;;;21.23;;
46363;SDS011;32071;49.036;9.344;2023-08-20T07:39:12;24.00;;;21.50;;
46363;SDS011;32071;49.036;9.344;2023-08-20T07:41:39;23.90;;;21.70;;
46363;SDS011;32071;49.036;9.344;2023-08-20T07:44:05;24.33;;;21.83;;
46363;SDS011;32071;49.036;9.344;2023-08-20T07:46:31;24.67;;;22.23;;
46363;SDS011;32071;49.036;9.344;2023-08-20T07:48:56;24.40;;;22.10;;
46363;SDS011;32071;49.036;9.344;2023-08-20T07:51:22;23.30;;;21.20;;
46363;SDS011;32071;49.036;9.344;2023-08-20T07:53:47;22.77;;;20.37;;
46363;SDS011;32071;49.036;9.344;2023-08-20T07:56:13;24.40;;;22.00;;
46363;SDS011;32071;49.036;9.344;2023-08-20T07:58:39;23.43;;;21.20;;
46363;SDS011;32071;49.036;9.344;2023-08-20T08:01:04;27.37;;;24.10;;
46363;SDS011;32071;49.036;9.344;2023-08-20T08:03:30;24.20;;;20.70;;
46363;SDS011;32071;49.036;9.344;2023-08-20T08:05:55;23.13;;;21.07;;
46363;SDS011;32071;49.036;9.344;2023-08-20T08:08:21;24.60;;;22.00;;
46363;SDS011;32071;49.036;9.344;2023-08-20T08:10:47;23.70;;;21.40;;
46363;SDS011;32071;49.036;9.344;2023-08-20T08:13:19;22.00;;;19.67;;
46363;SDS011;32071;49.036;9.344;2023-08-20T08:15:45;25.00;;;22.63;;
46363;SDS011;32071;49.036;9.344;2023-08-20T08:18:11;24.13;;;21.83;;
46363;SDS011;32071;49.036;9.344;2023-08-20T08:20:37;24.17;;;21.80;;
46363;SDS011;32071;49.036;9.344;2023-08-20T08:23:03;24.57;;;22.13;;
46363;SDS011;32071;49.036;9.344;2023-08-20T08:25:29;24.07;;;21.53;;
46363;SDS011;32071;49.036;9.344;2023-08-20T08:27:55;23.20;;;21.03;;
46363;SDS011;32071;49.036;9.344;2023-08-20T08:30:20;22.80;;;20.80;;
46363;SDS011;32071;49.036;9.344;2023-08-20T08:32:46;23.77;;;21.30;;
46363;SDS011;32071;49.036;9.344;2023-08-20T08:35:12;21.60;;;19.47;;
46363;SDS011;32071;49.036;9.344;2023-08-20T08:37:37;22.90;;;20.50;;
46363;SDS011;32071;49.036;9.344;2023-08-20T08:40:03;23.43;;;21.13;;
46363;SDS011;32071;49.036;9.344;2023-08-20T08:42:30;22.93;;;20.73;;
46363;SDS011;32071;49.036;9.344;2023-08-20T08:44:57;22.10;;;20.00;;
46363;SDS011;32071;49.036;9.344;2023-08-20T08:47:27;24.23;;;21.87;;
46363;SDS011;32071;49.036;9.344;2023-08-20T08:49:54;21.60;;;19.70;;
46363;SDS011;32071;49.036;9.344;2023-08-20T08:52:24;23.77;;;21.23;;
46363;SDS011;32071;49.036;9.344;2023-08-20T08:54:51;23.07;;;20.67;;
46363;SDS011;32071;49.036;9.344;2023-08-20T08:57:17;21.80;;;19.60;;
46363;SDS011;32071;49.036;9.344;2023-08-20T08:59:43;22.63;;;20.20;;
46363;SDS011;32071;49.036;9.344;2023-08-20T09:02:09;23.10;;;20.90;;
46363;SDS011;32071;49.036;9.344;2023-08-20T09:04:41;21.80;;;19.70;;
46363;SDS011;32071;49.036;9.344;2023-08-20T09:07:14;22.10;;;20.10;;
46363;SDS011;32071;49.036;9.344;2023-08-20T09:09:46;20.80;;;18.70;;
46363;SDS011;32071;49.036;9.344;2023-08-20T09:12:12;21.23;;;19.10;;
46363;SDS011;32071;49.036;9.344;2023-08-20T09:14:39;22.40;;;20.40;;
46363;SDS011;32071;49.036;9.344;2023-08-20T09:17:08;19.87;;;17.97;;
46363;SDS011;32071;49.036;9.344;2023-08-20T09:19:36;23.13;;;20.93;;
46363;SDS011;32071;49.036;9.344;2023-08-20T09:22:02;21.63;;;19.40;;
46363;SDS011;32071;49.036;9.344;2023-08-20T09:24:41;20.90;;;18.70;;
46363;SDS011;32071;49.036;9.344;2023-08-20T09:27:09;20.40;;;18.60;;
46363;SDS011;32071;49.036;9.344;2023-08-20T09:29:55;19.07;;;17.43;;
46363;SDS011;32071;49.036;9.344;2023-08-20T09:32:24;18.97;;;17.30;;
46363;SDS011;32071;49.036;9.344;2023-08-20T09:34:52;19.67;;;17.77;;
46363;SDS011;32071;49.036;9.344;2023-08-20T09:37:19;19.90;;;18.00;;
46363;SDS011;32071;49.036;9.344;2023-08-20T09:39:46;19.90;;;17.90;;
46363;SDS011;32071;49.036;9.344;2023-08-20T09:42:12;19.10;;;17.40;;
46363;SDS011;32071;49.036;9.344;2023-08-20T09:44:39;20.77;;;18.10;;
46363;SDS011;32071;49.036;9.344;2023-08-20T09:47:06;17.60;;;16.17;;
46363;SDS011;32071;49.036;9.344;2023-08-20T09:49:37;18.00;;;16.33;;
46363;SDS011;32071;49.036;9.344;2023-08-20T09:52:04;18.67;;;17.03;;
46363;SDS011;32071;49.036;9.344;2023-08-20T09:57:23;17.53;;;16.03;;
46363;SDS011;32071;49.036;9.344;2023-08-20T09:59:54;17.30;;;15.60;;
46363;SDS011;32071;49.036;9.344;2023-08-20T10:02:20;17.60;;;15.90;;
46363;SDS011;32071;49.036;9.344;2023-08-20T10:04:46;17.23;;;15.73;;
46363;SDS011;32071;49.036;9.344;2023-08-20T10:07:13;18.90;;;17.00;;
46363;SDS011;32071;49.036;9.344;2023-08-20T10:09:39;17.03;;;15.53;;
46363;SDS011;32071;49.036;9.344;2023-08-20T10:12:07;17.70;;;16.23;;
46363;SDS011;32071;49.036;9.344;2023-08-20T10:14:33;16.53;;;15.03;;
46363;SDS011;32071;49.036;9.344;2023-08-20T10:16:59;16.67;;;15.10;;
46363;SDS011;32071;49.036;9.344;2023-08-20T10:19:30;17.30;;;15.80;;
46363;SDS011;32071;49.036;9.344;2023-08-20T10:21:56;16.90;;;15.20;;
46363;SDS011;32071;49.036;9.344;2023-08-20T10:24:23;16.37;;;14.87;;
46363;SDS011;32071;49.036;9.344;2023-08-20T10:26:49;17.20;;;15.50;;
46363;SDS011;32071;49.036;9.344;2023-08-20T10:29:37;15.43;;;14.13;;
46363;SDS011;32071;49.036;9.344;2023-08-20T10:32:05;15.63;;;14.43;;
46363;SDS011;32071;49.036;9.344;2023-08-20T10:34:38;15.60;;;14.30;;
46363;SDS011;32071;49.036;9.344;2023-08-20T10:37:10;15.37;;;13.97;;
46363;SDS011;32071;49.036;9.344;2023-08-20T10:39:37;16.20;;;14.80;;
46363;SDS011;32071;49.036;9.344;2023-08-20T10:42:09;14.90;;;13.50;;
46363;SDS011;32071;49.036;9.344;2023-08-20T10:45:06;15.33;;;13.90;;
46363;SDS011;32071;49.036;9.344;2023-08-20T10:47:42;16.43;;;14.77;;
46363;SDS011;32071;49.036;9.344;2023-08-20T10:50:09;15.07;;;13.77;;
46363;SDS011;32071;49.036;9.344;2023-08-20T10:52:39;13.87;;;12.60;;
46363;SDS011;32071;49.036;9.344;2023-08-20T10:55:06;13.17;;;11.97;;
46363;SDS011;32071;49.036;9.344;2023-08-20T10:57:36;13.90;;;12.60;;
46363;SDS011;32071;49.036;9.344;2023-08-20T11:00:05;11.80;;;10.60;;
46363;SDS011;32071;49.036;9.344;2023-08-20T11:02:36;13.27;;;11.40;;
46363;SDS011;32071;49.036;9.344;2023-08-20T11:05:15;13.40;;;12.10;;
46363;SDS011;32071;49.036;9.344;2023-08-20T11:07:47;16.13;;;12.27;;
46363;SDS011;32071;49.036;9.344;2023-08-20T11:10:14;16.27;;;12.40;;
46363;SDS011;32071;49.036;9.344;2023-08-20T11:12:41;13.53;;;12.23;;
46363;SDS011;32071;49.036;9.344;2023-08-20T11:15:12;13.00;;;11.80;;
46363;SDS011;32071;49.036;9.344;2023-08-20T11:17:56;12.63;;;11.63;;
46363;SDS011;32071;49.036;9.344;2023-08-20T11:20:22;12.90;;;11.80;;
46363;SDS011;32071;49.036;9.344;2023-08-20T11:22:48;13.53;;;12.30;;
46363;SDS011;32071;49.036;9.344;2023-08-20T11:25:14;12.80;;;11.50;;
46363;SDS011;32071;49.036;9.344;2023-08-20T11:27:43;13.00;;;11.90;;
46363;SDS011;32071;49.036;9.344;2023-08-20T11:30:09;13.50;;;12.50;;
46363;SDS011;32071;49.036;9.344;2023-08-20T11:32:37;13.23;;;11.97;;
46363;SDS011;32071;49.036;9.344;2023-08-20T11:35:03;13.87;;;12.50;;
46363;SDS011;32071;49.036;9.344;2023-08-20T11:37:30;12.67;;;11.47;;
46363;SDS011;32071;49.036;9.344;2023-08-20T11:39:55;13.90;;;12.70;;
46363;SDS011;32071;49.036;9.344;2023-08-20T11:42:21;13.30;;;12.27;;
46363;SDS011;32071;49.036;9.344;2023-08-20T11:44:47;13.43;;;12.33;;
46363;SDS011;32071;49.036;9.344;2023-08-20T11:47:17;13.27;;;12.07;;
46363;SDS011;32071;49.036;9.344;2023-08-20T11:49:43;13.03;;;11.93;;
46363;SDS011;32071;49.036;9.344;2023-08-20T11:52:09;12.90;;;11.73;;
46363;SDS011;32071;49.036;9.344;2023-08-20T11:54:35;13.97;;;12.77;;
46363;SDS011;32071;49.036;9.344;2023-08-20T11:57:05;13.57;;;12.20;;
46363;SDS011;32071;49.036;9.344;2023-08-20T11:59:31;14.30;;;12.77;;
46363;SDS011;32071;49.036;9.344;2023-08-20T12:01:58;12.87;;;11.83;;
46363;SDS011;32071;49.036;9.344;2023-08-20T12:04:28;13.27;;;11.97;;
46363;SDS011;32071;49.036;9.344;2023-08-20T12:07:04;15.17;;;12.13;;
46363;SDS011;32071;49.036;9.344;2023-08-20T12:09:34;13.93;;;12.40;;
46363;SDS011;32071;49.036;9.344;2023-08-20T12:12:00;14.20;;;13.00;;
46363;SDS011;32071;49.036;9.344;2023-08-20T12:14:26;12.47;;;11.47;;
46363;SDS011;32071;49.036;9.344;2023-08-20T12:16:53;13.57;;;12.33;;
46363;SDS011;32071;49.036;9.344;2023-08-20T12:19:19;13.13;;;11.90;;
46363;SDS011;32071;49.036;9.344;2023-08-20T12:21:45;13.80;;;12.47;;
46363;SDS011;32071;49.036;9.344;2023-08-20T12:24:11;12.03;;;11.00;;
46363;SDS011;32071;49.036;9.344;2023-08-20T12:26:37;12.33;;;11.20;;
46363;SDS011;32071;49.036;9.344;2023-08-20T12:29:04;12.63;;;11.53;;
46363;SDS011;32071;49.036;9.344;2023-08-20T12:31:30;13.23;;;12.07;;
46363;SDS011;32071;49.036;9.344;2023-08-20T12:33:56;13.47;;;12.27;;
46363;SDS011;32071;49.036;9.344;2023-08-20T12:36:22;13.03;;;11.60;;
46363;SDS011;32071;49.036;9.344;2023-08-20T12:38:47;13.00;;;11.90;;
46363;SDS011;32071;49.036;9.344;2023-08-20T12:41:13;13.00;;;11.90;;
46363;SDS011;32071;49.036;9.344;2023-08-20T12:43:39;13.03;;;11.80;;
46363;SDS011;32071;49.036;9.344;2023-08-20T12:46:05;13.27;;;11.67;;
46363;SDS011;32071;49.036;9.344;2023-08-20T12:48:30;12.03;;;11.23;;
46363;SDS011;32071;49.036;9.344;2023-08-20T12:50:56;13.03;;;11.73;;
46363;SDS011;32071;49.036;9.344;2023-08-20T12:53:22;12.50;;;11.50;;
46363;SDS011;32071;49.036;9.344;2023-08-20T12:55:47;12.40;;;11.20;;
46363;SDS011;32071;49.036;9.344;2023-08-20T12:58:13;11.90;;;10.97;;
46363;SDS011;32071;49.036;9.344;2023-08-20T13:00:38;12.87;;;11.63;;
46363;SDS011;32071;49.036;9.344;2023-08-20T13:03:04;12.70;;;11.33;;
46363;SDS011;32071;49.036;9.344;2023-08-20T13:05:30;11.60;;;10.70;;
46363;SDS011;32071;49.036;9.344;2023-08-20T13:07:56;11.33;;;10.43;;
46363;SDS011;32071;49.036;9.344;2023-08-20T13:10:22;12.30;;;11.13;;
46363;SDS011;32071;49.036;9.344;2023-08-20T13:12:49;11.47;;;10.57;;
46363;SDS011;32071;49.036;9.344;2023-08-20T13:15:17;12.13;;;11.07;;
46363;SDS011;32071;49.036;9.344;2023-08-20T13:17:45;11.37;;;10.40;;
46363;SDS011;32071;49.036;9.344;2023-08-20T13:20:11;11.20;;;10.20;;
46363;SDS011;32071;49.036;9.344;2023-08-20T13:22:37;11.47;;;10.37;;
46363;SDS011;32071;49.036;9.344;2023-08-20T13:25:02;11.50;;;10.47;;
46363;SDS011;32071;49.036;9.344;2023-08-20T13:27:29;11.80;;;10.80;;
46363;SDS011;32071;49.036;9.344;2023-08-20T13:29:55;11.20;;;10.30;;
46363;SDS011;32071;49.036;9.344;2023-08-20T13:32:20;11.20;;;10.13;;
46363;SDS011;32071;49.036;9.344;2023-08-20T13:34:46;11.50;;;10.50;;
46363;SDS011;32071;49.036;9.344;2023-08-20T13:37:12;11.20;;;10.20;;
46363;SDS011;32071;49.036;9.344;2023-08-20T13:39:37;13.20;;;11.30;;
46363;SDS011;32071;49.036;9.344;2023-08-20T13:42:03;11.33;;;10.33;;
46363;SDS011;32071;49.036;9.344;2023-08-20T13:44:28;11.97;;;10.77;;
46363;SDS011;32071;49.036;9.344;2023-08-20T13:46:54;11.10;;;10.10;;
46363;SDS011;32071;49.036;9.344;2023-08-20T13:49:20;11.20;;;10.40;;
46363;SDS011;32071;49.036;9.344;2023-08-20T13:51:45;11.50;;;10.60;;
46363;SDS011;32071;49.036;9.344;2023-08-20T13:54:11;11.73;;;10.67;;
46363;SDS011;32071;49.036;9.344;2023-08-20T13:56:36;11.73;;;10.37;;
46363;SDS011;32071;49.036;9.344;2023-08-20T13:59:02;11.50;;;10.50;;
46363;SDS011;32071;49.036;9.344;2023-08-20T14:01:28;12.97;;;10.87;;
46363;SDS011;32071;49.036;9.344;2023-08-20T14:03:53;11.53;;;10.53;;
46363;SDS011;32071;49.036;9.344;2023-08-20T14:06:19;11.30;;;10.30;;
46363;SDS011;32071;49.036;9.344;2023-08-20T14:08:45;11.80;;;10.50;;
46363;SDS011;32071;49.036;9.344;2023-08-20T14:11:10;11.83;;;10.77;;
46363;SDS011;32071;49.036;9.344;2023-08-20T14:13:36;11.20;;;10.30;;
46363;SDS011;32071;49.036;9.344;2023-08-20T14:16:01;10.73;;;9.83;;
46363;SDS011;32071;49.036;9.344;2023-08-20T14:18:27;11.60;;;10.70;;
46363;SDS011;32071;49.036;9.344;2023-08-20T14:20:53;11.47;;;10.57;;
46363;SDS011;32071;49.036;9.344;2023-08-20T14:23:18;10.87;;;9.87;;
46363;SDS011;32071;49.036;9.344;2023-08-20T14:25:44;11.13;;;10.00;;
46363;SDS011;32071;49.036;9.344;2023-08-20T14:28:09;11.33;;;10.43;;